Time;durP1;ratioP1;P1;durP2;ratioP2;P2;SDS_P1;SDS_P2;PMS_P1;PMS_P2;Temp;Humidity;BMP_temperature;BMP_pressure;BME280_temperature;BME280_humidity;BME280_pressure;Samples;Min_cycle;Max_cycle;Signal;HPM_P1;HPM_P2
2022/12/10 00:01:52;;;;;;;84.32;35.63;;;;;;;1.02;100.00;99775.84;8356802;28;20072;-50
2022/12/10 00:05:52;;;;;;;79.40;34.13;;;;;;;1.10;100.00;99777.06;8355186;28;20032;-53
2022/12/10 00:09:53;;;;;;;77.50;31.58;;;;;;;0.81;100.00;99790.53;8355843;28;20075;-51
2022/12/10 00:13:54;;;;;;;84.20;34.90;;;;;;;0.62;100.00;99789.97;8356995;28;20525;-50
2022/12/10 00:17:54;;;;;;;76.03;32.30;;;;;;;0.45;100.00;99783.06;8356088;28;20037;-52
2022/12/10 00:21:55;;;;;;;85.25;31.92;;;;;;;0.29;100.00;99784.97;8355791;28;20041;-50
2022/12/10 00:26:02;;;;;;;77.65;32.53;;;;;;;0.12;100.00;99789.63;8356055;28;20344;-52
2022/12/10 00:30:03;;;;;;;77.63;33.03;;;;;;;-0.01;100.00;99794.78;8355500;28;20078;-50
2022/12/10 00:34:06;;;;;;;86.60;33.97;;;;;;;0.32;100.00;99789.22;8354634;28;20495;-50
2022/12/10 00:38:07;;;;;;;92.40;34.43;;;;;;;0.46;100.00;99786.59;8355469;28;20060;-53
2022/12/10 00:42:07;;;;;;;92.32;37.47;;;;;;;0.46;100.00;99790.09;8355496;28;20036;-51
2022/12/10 00:46:09;;;;;;;94.25;35.45;;;;;;;0.15;100.00;99789.41;8355220;28;20037;-51
2022/12/10 00:50:09;;;;;;;92.78;36.63;;;;;;;-0.08;100.00;99783.72;8356240;28;20033;-50
2022/12/10 00:54:11;;;;;;;102.47;34.92;;;;;;;-0.12;100.00;99787.47;8354076;28;20033;-50
2022/12/10 00:58:11;;;;;;;83.10;33.22;;;;;;;-0.29;100.00;99779.69;8355425;28;20074;-50
2022/12/10 01:02:12;;;;;;;93.70;34.42;;;;;;;-0.39;100.00;99789.09;8356779;28;20099;-50
2022/12/10 01:06:17;;;;;;;95.20;35.10;;;;;;;-0.35;100.00;99795.97;8361633;28;20398;-51
2022/12/10 01:10:17;;;;;;;106.00;34.80;;;;;;;-0.30;100.00;99788.56;8361629;28;20041;-51
2022/12/10 01:14:23;;;;;;;91.03;35.47;;;;;;;-0.13;100.00;99796.41;8361891;28;20124;-50
2022/12/10 01:18:23;;;;;;;89.43;34.85;;;;;;;-0.29;100.00;99800.91;8361742;28;20470;-50
2022/12/10 01:22:24;;;;;;;87.47;36.55;;;;;;;-0.39;100.00;99805.03;8377006;28;20039;-50
2022/12/10 01:26:31;;;;;;;92.25;33.67;;;;;;;-0.56;100.00;99809.63;8368260;28;20048;-50
2022/12/10 01:30:32;;;;;;;82.45;34.63;;;;;;;-0.48;100.00;99810.91;8361479;28;20052;-50
2022/12/10 01:34:33;;;;;;;87.05;35.78;;;;;;;-0.55;100.00;99820.16;8361421;28;20055;-50
2022/12/10 01:38:33;;;;;;;80.97;31.48;;;;;;;-0.63;100.00;99824.19;8361390;28;20041;-52
2022/12/10 01:42:34;;;;;;;96.47;35.60;;;;;;;-0.57;100.00;99827.38;8361194;28;20075;-50
2022/12/10 01:46:37;;;;;;;82.57;33.28;;;;;;;-0.62;100.00;99824.09;8361120;28;20029;-50
2022/12/10 01:50:38;;;;;;;96.93;35.00;;;;;;;-0.63;100.00;99824.19;8360788;28;20037;-50
2022/12/10 01:54:42;;;;;;;88.88;34.33;;;;;;;-0.64;100.00;99831.28;8359321;28;20045;-50
2022/12/10 01:58:44;;;;;;;89.00;33.00;;;;;;;-0.73;100.00;99836.28;8360638;28;20036;-51
2022/12/10 02:02:55;;;;;;;93.63;33.83;;;;;;;-0.69;100.00;99838.69;8360853;28;20041;-50
2022/12/10 02:07:06;;;;;;;92.70;34.47;;;;;;;-0.66;100.00;99843.81;8360194;28;20037;-51
2022/12/10 02:11:16;;;;;;;90.43;33.22;;;;;;;-0.61;100.00;99847.03;8359779;28;20044;-50
2022/12/10 02:15:24;;;;;;;93.78;34.78;;;;;;;-0.46;100.00;99842.63;8332658;28;20693;-50
2022/12/10 02:19:53;;;;;;;97.18;34.50;;;;;;;-0.35;100.00;99854.38;8355396;28;20051;-51
2022/12/10 02:24:00;;;;;;;81.07;32.47;;;;;;;-0.47;100.00;99843.59;8355392;28;20075;-50
2022/12/10 02:28:12;;;;;;;89.75;32.90;;;;;;;-0.39;100.00;99847.50;8356823;28;20037;-50
2022/12/10 02:32:17;;;;;;;79.78;32.75;;;;;;;-0.26;100.00;99848.53;8358481;28;20090;-50
2022/12/10 02:36:21;;;;;;;100.25;34.88;;;;;;;-0.28;100.00;99844.22;8359137;28;20123;-51
2022/12/10 02:40:28;;;;;;;86.65;34.20;;;;;;;-0.31;100.00;99850.59;8358820;28;20511;-50
2022/12/10 02:44:31;;;;;;;92.55;32.95;;;;;;;-0.27;100.00;99846.81;8358426;28;20513;-50
2022/12/10 02:48:34;;;;;;;107.00;34.45;;;;;;;-0.29;100.00;99848.72;8359249;28;20120;-53
2022/12/10 02:52:35;;;;;;;99.10;34.38;;;;;;;-0.29;100.00;99854.03;8358470;28;20055;-51
2022/12/10 02:56:50;;;;;;;100.78;35.20;;;;;;;-0.20;100.00;99850.81;8357244;28;20155;-50
2022/12/10 03:01:01;;;;;;;101.25;37.08;;;;;;;0.03;100.00;99855.63;8358896;28;20115;-50
2022/12/10 03:05:17;;;;;;;100.68;37.80;;;;;;;0.08;100.00;99867.78;8357930;28;20037;-50
2022/12/10 03:09:32;;;;;;;102.53;39.65;;;;;;;0.13;100.00;99874.53;8358189;28;20044;-51
2022/12/10 03:13:38;;;;;;;105.65;38.80;;;;;;;0.24;100.00;99868.59;8355935;28;20037;-50
2022/12/10 03:17:41;;;;;;;106.88;39.55;;;;;;;0.28;100.00;99864.78;8356393;28;20048;-51
2022/12/10 03:21:44;;;;;;;104.53;36.72;;;;;;;0.34;100.00;99867.06;8356321;28;20466;-51
2022/12/10 03:25:48;;;;;;;97.53;38.10;;;;;;;0.30;100.00;99869.06;8355666;28;20057;-50
2022/12/10 03:29:53;;;;;;;99.05;39.38;;;;;;;0.26;100.00;99862.22;8356785;28;20037;-51
2022/12/10 03:33:54;;;;;;;98.93;39.38;;;;;;;0.21;100.00;99863.47;8355367;28;20116;-51
2022/12/10 03:37:55;;;;;;;101.85;38.92;;;;;;;0.24;100.00;99868.59;8356529;28;20094;-51
2022/12/10 03:41:56;;;;;;;103.40;39.20;;;;;;;0.25;100.00;99870.28;8357088;28;20051;-51
2022/12/10 03:45:57;;;;;;;104.25;38.20;;;;;;;0.23;100.00;99869.50;8356112;28;20036;-54
2022/12/10 03:49:57;;;;;;;109.68;38.85;;;;;;;0.21;100.00;99863.47;8356153;28;20375;-51
2022/12/10 03:53:58;;;;;;;116.55;38.58;;;;;;;0.19;100.00;99862.69;8356444;28;20199;-53
2022/12/10 03:57:59;;;;;;;113.93;39.30;;;;;;;0.18;100.00;99868.97;8356132;28;20029;-52
2022/12/10 04:01:59;;;;;;;107.53;38.75;;;;;;;0.18;100.00;99875.09;8356639;28;20051;-51
2022/12/10 04:06:10;;;;;;;103.53;39.47;;;;;;;0.21;100.00;99874.09;8356387;28;20053;-52
2022/12/10 04:10:12;;;;;;;126.43;42.75;;;;;;;0.24;100.00;99889.84;8355732;28;20036;-51
2022/12/10 04:18:33;;;;;;;114.20;40.00;;;;;;;0.24;100.00;99884.53;8355841;28;20055;-51
2022/12/10 04:26:56;;;;;;;129.15;43.60;;;;;;;0.41;100.00;99897.66;8353899;28;20267;-52
2022/12/10 04:30:57;;;;;;;135.20;45.70;;;;;;;0.40;100.00;99880.00;8354870;28;20155;-52
2022/12/10 04:34:58;;;;;;;146.10;44.75;;;;;;;0.47;100.00;99894.63;8355616;28;20060;-51
2022/12/10 04:38:58;;;;;;;123.68;42.80;;;;;;;0.43;100.00;99893.09;8355501;28;20045;-51
2022/12/10 04:42:59;;;;;;;131.55;45.40;;;;;;;0.33;100.00;99895.44;8355671;28;20509;-51
2022/12/10 04:47:00;;;;;;;133.70;44.15;;;;;;;0.42;100.00;99894.06;8355456;28;20124;-51
2022/12/10 04:51:00;;;;;;;137.02;45.83;;;;;;;0.36;100.00;99897.09;8354278;28;20036;-51
2022/12/10 04:55:01;;;;;;;142.00;46.08;;;;;;;0.37;100.00;99894.34;8355238;28;20037;-54
2022/12/10 04:59:02;;;;;;;149.30;47.35;;;;;;;0.37;100.00;99891.69;8354773;28;20044;-51
2022/12/10 05:03:03;;;;;;;135.70;44.58;;;;;;;0.36;100.00;99884.63;8354096;28;20041;-52
2022/12/10 05:07:03;;;;;;;146.63;45.47;;;;;;;0.45;100.00;99888.56;8354821;28;20029;-53
2022/12/10 05:11:07;;;;;;;149.77;47.55;;;;;;;0.44;100.00;99878.84;8355064;28;20572;-51
2022/12/10 05:15:08;;;;;;;152.13;48.97;;;;;;;0.48;100.00;99888.34;8386242;28;20438;-55
2022/12/10 05:19:09;;;;;;;149.63;48.15;;;;;;;0.48;100.00;99896.31;8354755;28;20131;-51
2022/12/10 05:23:41;;;;;;;145.52;47.15;;;;;;;0.48;100.00;99888.34;8354798;28;20643;-53
2022/12/10 05:27:33;;;;;;;140.00;45.45;;;;;;;0.46;100.00;99900.91;8353090;28;20037;-51
2022/12/10 05:31:33;;;;;;;148.93;47.85;;;;;;;0.37;100.00;99906.75;8354067;28;20110;-52
2022/12/10 05:35:34;;;;;;;148.23;47.20;;;;;;;0.41;100.00;99897.66;8354614;28;20041;-52
2022/12/10 05:39:34;;;;;;;153.82;48.17;;;;;;;0.43;100.00;99893.97;8354628;28;20037;-51
2022/12/10 05:43:35;;;;;;;149.98;46.80;;;;;;;0.42;100.00;99902.03;8354697;28;20071;-51
2022/12/10 05:47:35;;;;;;;150.57;47.17;;;;;;;0.38;100.00;99896.03;8355422;28;20299;-52
2022/12/10 05:51:37;;;;;;;154.25;47.03;;;;;;;0.37;100.00;99898.78;8339983;28;20077;-51
2022/12/10 05:55:38;;;;;;;154.27;46.10;;;;;;;0.29;100.00;99903.69;8347958;28;20112;-53
2022/12/10 05:59:38;;;;;;;140.13;46.35;;;;;;;0.31;100.00;99907.13;8345706;28;20498;-51
2022/12/10 06:03:40;;;;;;;160.05;47.97;;;;;;;0.44;100.00;99918.72;8359773;28;20048;-52
2022/12/10 06:07:41;;;;;;;150.93;46.78;;;;;;;0.39;100.00;99915.50;8357616;28;20510;-51
2022/12/10 06:11:42;;;;;;;156.95;47.03;;;;;;;0.45;100.00;99915.16;8359677;28;20136;-52
2022/12/10 06:15:42;;;;;;;162.18;49.03;;;;;;;0.46;100.00;99903.56;8359416;28;20095;-52
2022/12/10 06:19:43;;;;;;;155.77;48.25;;;;;;;0.50;100.00;99907.72;8358343;28;20041;-51
2022/12/10 06:23:44;;;;;;;160.27;48.72;;;;;;;0.60;100.00;99907.06;8358981;28;20040;-52
2022/12/10 06:27:44;;;;;;;168.18;49.67;;;;;;;0.67;100.00;99911.06;8359265;28;20107;-52
2022/12/10 06:31:45;;;;;;;160.30;46.45;;;;;;;0.68;100.00;99911.94;8358003;28;20053;-51
2022/12/10 06:35:45;;;;;;;164.30;48.83;;;;;;;0.71;100.00;99917.94;8339831;28;20087;-53
2022/12/10 06:39:46;;;;;;;151.68;47.35;;;;;;;0.68;100.00;99922.56;8354725;28;20518;-51
2022/12/10 06:43:47;;;;;;;166.02;46.72;;;;;;;0.63;100.00;99924.63;8346713;28;20045;-53
2022/12/10 06:47:48;;;;;;;165.88;48.22;;;;;;;0.55;100.00;99926.94;8365369;28;20498;-51
2022/12/10 06:51:48;;;;;;;179.32;48.53;;;;;;;0.56;100.00;99933.94;8358468;28;20502;-51
2022/12/10 06:55:49;;;;;;;166.98;49.20;;;;;;;0.56;100.00;99933.94;8356756;28;20033;-52
2022/12/10 06:59:49;;;;;;;180.93;50.35;;;;;;;0.53;100.00;99939.44;8357764;28;20041;-53
2022/12/10 07:03:51;;;;;;;174.77;48.38;;;;;;;0.54;100.00;99952.66;8357526;28;20033;-52
2022/12/10 07:07:52;;;;;;;182.52;47.15;;;;;;;0.64;100.00;99960.94;8358710;28;20044;-51
2022/12/10 07:11:52;;;;;;;187.57;51.97;;;;;;;0.68;100.00;99970.44;8357861;28;20502;-51
2022/12/10 07:15:53;;;;;;;169.70;48.03;;;;;;;0.65;100.00;99970.63;8343264;28;20040;-52
2022/12/10 07:19:53;;;;;;;179.98;47.70;;;;;;;0.67;100.00;99968.75;8356538;28;20055;-51
2022/12/10 07:23:57;;;;;;;158.15;47.42;;;;;;;0.72;100.00;99956.00;8354114;28;20498;-51
2022/12/10 07:27:58;;;;;;;176.82;48.08;;;;;;;0.70;100.00;99957.91;8350484;28;20044;-51
2022/12/10 07:31:58;;;;;;;177.93;49.40;;;;;;;0.66;100.00;99970.53;8347267;28;20029;-54
2022/12/10 07:35:59;;;;;;;190.20;49.53;;;;;;;0.59;100.00;99966.53;8331662;28;20123;-52
2022/12/10 07:39:59;;;;;;;168.43;45.42;;;;;;;0.62;100.00;99970.81;8340958;28;20495;-51
2022/12/10 07:44:00;;;;;;;193.02;47.88;;;;;;;0.58;100.00;99975.44;8353313;28;20037;-52
2022/12/10 07:48:01;;;;;;;185.77;48.28;;;;;;;0.55;100.00;99980.94;8346427;28;20036;-51
2022/12/10 07:52:01;;;;;;;174.05;45.83;;;;;;;0.58;100.00;99975.44;8326584;28;20111;-53
2022/12/10 07:56:02;;;;;;;190.13;49.17;;;;;;;0.69;100.00;99978.31;8323399;28;20034;-54
2022/12/10 08:00:03;;;;;;;180.10;50.92;;;;;;;0.57;100.00;99979.06;8346681;28;20041;-54
2022/12/10 08:04:23;;;;;;;196.75;50.30;;;;;;;0.66;100.00;99983.81;8422050;27;20480;-55
2022/12/10 08:08:24;;;;;;;172.52;46.40;;;;;;;0.69;100.00;99993.41;8398245;28;20032;-55
2022/12/10 08:12:24;;;;;;;179.02;50.15;;;;;;;0.67;100.00;100003.31;8399114;28;20032;-53
2022/12/10 08:16:27;;;;;;;187.52;52.33;;;;;;;0.78;100.00;100008.81;8396364;28;20549;-52
2022/12/10 08:20:27;;;;;;;205.63;54.97;;;;;;;0.79;100.00;100005.25;8412680;28;20036;-53
2022/12/10 08:24:28;;;;;;;200.15;52.75;;;;;;;0.78;100.00;100011.50;8412585;28;20123;-53
2022/12/10 08:28:28;;;;;;;179.50;47.35;;;;;;;0.81;100.00;100020.16;8412463;28;20064;-56
2022/12/10 08:32:29;;;;;;;185.55;50.00;;;;;;;0.90;100.00;100018.72;8412989;28;20563;-55
2022/12/10 08:36:30;;;;;;;183.75;48.92;;;;;;;0.88;100.00;100028.63;8410115;28;20044;-52
2022/12/10 08:40:31;;;;;;;196.55;48.30;;;;;;;0.90;100.00;100029.38;8415067;28;20044;-54
2022/12/10 08:44:31;;;;;;;194.13;50.47;;;;;;;0.89;100.00;100033.88;8414409;28;20037;-52
2022/12/10 08:48:33;;;;;;;181.25;49.00;;;;;;;0.90;100.00;100029.38;8414791;28;20032;-53
2022/12/10 08:52:33;;;;;;;165.98;46.35;;;;;;;0.92;100.00;100032.81;8412243;28;20530;-52
2022/12/10 08:56:34;;;;;;;166.52;44.63;;;;;;;0.88;100.00;100039.28;8397037;28;20413;-53
2022/12/10 09:00:36;;;;;;;154.10;43.45;;;;;;;0.80;100.00;100047.72;8411750;28;20041;-55
2022/12/10 09:04:38;;;;;;;178.88;49.38;;;;;;;0.85;100.00;100044.78;8404268;28;20074;-55
2022/12/10 09:08:42;;;;;;;166.13;47.03;;;;;;;0.93;100.00;100047.81;8400549;28;20056;-52
2022/12/10 09:12:43;;;;;;;148.00;43.08;;;;;;;1.09;100.00;100051.25;8380411;28;20041;-56
2022/12/10 09:16:43;;;;;;;141.93;43.00;;;;;;;1.10;100.00;100042.34;8369342;28;20054;-53
2022/12/10 09:20:44;;;;;;;156.20;44.53;;;;;;;1.19;100.00;100049.78;8354612;28;20120;-53
2022/12/10 09:24:44;;;;;;;148.27;43.75;;;;;;;1.15;100.00;100050.88;8354572;28;20044;-52
2022/12/10 09:28:47;;;;;;;133.50;40.75;;;;;;;1.16;100.00;100052.63;8353473;28;20574;-56
2022/12/10 09:32:48;;;;;;;150.60;43.75;;;;;;;1.17;100.00;100057.84;8354099;28;20495;-55
2022/12/10 09:36:48;;;;;;;140.68;40.95;;;;;;;1.17;100.00;100059.66;8346375;28;20406;-55
2022/12/10 09:40:59;;;;;;;135.20;43.75;;;;;;;1.30;100.00;100060.59;8348898;28;20095;-56
2022/12/10 09:45:40;;;;;;;148.60;43.13;;;;;;;1.44;100.00;100063.28;8353132;28;20418;-53
2022/12/10 09:50:09;;;;;;;126.68;40.67;;;;;;;1.50;100.00;100068.22;8355788;28;20044;-54
2022/12/10 09:54:49;;;;;;;135.50;42.55;;;;;;;1.44;100.00;100068.63;8352675;28;20041;-56
2022/12/10 09:58:51;;;;;;;144.93;44.45;;;;;;;1.44;100.00;100063.28;8354253;28;20039;-52
2022/12/10 10:02:56;;;;;;;134.85;41.55;;;;;;;1.63;100.00;100055.84;8355606;28;20068;-55
2022/12/10 10:06:57;;;;;;;130.35;39.83;;;;;;;1.38;100.00;100058.34;8352761;28;20494;-55
2022/12/10 10:10:59;;;;;;;115.40;38.95;;;;;;;1.49;100.00;100061.19;8356462;28;20391;-56
2022/12/10 10:15:15;;;;;;;119.30;38.13;;;;;;;1.60;100.00;100061.38;8355565;28;20029;-56
2022/12/10 10:19:24;;;;;;;115.93;38.67;;;;;;;1.58;100.00;100060.59;8356315;28;20905;-56
2022/12/10 10:23:24;;;;;;;121.25;39.13;;;;;;;1.78;100.00;100057.56;8353814;28;20411;-54
2022/12/10 10:27:48;;;;;;;116.97;38.28;;;;;;;1.78;100.00;100057.56;8350009;28;20029;-54
2022/12/10 10:32:25;;;;;;;107.07;35.67;;;;;;;1.74;100.00;100058.72;8349006;28;20522;-53
2022/12/10 10:36:29;;;;;;;98.90;35.33;;;;;;;1.66;100.00;100059.19;8346676;28;20033;-54
2022/12/10 10:40:32;;;;;;;;;;;;;;;1.50;100.00;100062.91;8350828;28;20037;-56
2022/12/10 10:44:36;;;;;;;97.47;34.57;;;;;;;1.64;100.00;100053.09;8354820;28;19916;-54
2022/12/10 10:48:37;;;;;;;100.60;31.63;;;;;;;1.63;100.00;100058.53;8355016;28;20055;-55
2022/12/10 10:52:38;;;;;;;101.18;32.90;;;;;;;1.77;100.00;100067.34;8355293;28;20053;-55
2022/12/10 10:56:42;;;;;;;106.93;36.17;;;;;;;1.90;100.00;100056.78;8348864;28;20047;-53
2022/12/10 11:00:53;;;;;;;98.78;34.63;;;;;;;2.21;100.00;100061.84;8350314;28;20178;-54
2022/12/10 11:04:55;;;;;;;100.65;35.40;;;;;;;2.38;100.00;100064.25;8336802;28;20457;-55
2022/12/10 11:08:58;;;;;;;94.35;31.52;;;;;;;2.26;99.05;100058.88;8355243;28;20037;-55
2022/12/10 11:13:06;;;;;;;93.07;32.83;;;;;;;2.29;98.93;100048.03;8353823;28;20045;-53
2022/12/10 11:21:25;;;;;;;85.35;30.38;;;;;;;2.38;97.90;100048.25;8401823;27;20381;-52
2022/12/10 11:25:58;;;;;;;83.28;30.38;;;;;;;2.60;98.08;100051.25;8362039;28;20514;-52
2022/12/10 11:30:09;;;;;;;86.18;32.55;;;;;;;2.54;99.55;100054.31;8377818;28;20487;-51
2022/12/10 11:39:07;;;;;;;84.15;32.10;;;;;;;2.38;100.00;100058.91;8387481;27;20752;-53
2022/12/10 11:43:35;;;;;;;87.07;32.85;;;;;;;2.38;100.00;100056.25;8410959;28;20111;-53
2022/12/10 11:48:04;;;;;;;91.68;31.10;;;;;;;2.28;100.00;100055.16;8410912;28;20063;-53
2022/12/10 11:52:20;;;;;;;79.45;30.30;;;;;;;2.14;100.00;100049.88;8397487;28;20045;-56
2022/12/10 11:56:34;;;;;;;80.70;31.08;;;;;;;2.07;100.00;100056.53;8401538;27;20032;-55
2022/12/10 12:00:47;;;;;;;84.05;32.67;;;;;;;2.13;100.00;100056.16;8398505;28;20033;-53
2022/12/10 12:09:33;;;;;;;70.72;28.25;;;;;;;2.19;97.33;100068.25;8347389;27;20924;-54
2022/12/10 12:13:45;;;;;;;72.97;28.00;;;;;;;2.41;96.34;100063.22;8293881;28;20045;-55
2022/12/10 12:17:52;;;;;;;73.97;26.83;;;;;;;2.49;93.61;100063.56;8282397;28;20377;-55
2022/12/10 12:21:52;;;;;;;60.92;25.50;;;;;;;2.61;94.28;100066.28;8281760;28;20049;-52
2022/12/10 12:26:01;;;;;;;69.10;27.20;;;;;;;2.73;91.92;100060.13;8307703;28;20042;-52
2022/12/10 12:30:12;;;;;;;61.95;26.67;;;;;;;2.93;92.16;100066.78;8308487;28;20037;-53
2022/12/10 12:34:20;;;;;;;66.78;24.05;;;;;;;2.81;89.86;100063.13;8305254;28;20491;-52
2022/12/10 12:38:30;;;;;;;65.30;24.20;;;;;;;2.94;90.54;100057.81;8298872;28;20034;-51
2022/12/10 12:42:54;;;;;;;66.25;26.85;;;;;;;3.07;90.07;100062.22;8306251;28;20044;-53
2022/12/10 12:46:58;;;;;;;73.88;25.95;;;;;;;3.03;88.38;100063.41;8308953;28;20049;-50
2022/12/10 12:51:05;;;;;;;59.97;24.40;;;;;;;2.85;90.20;100064.63;8310949;28;20176;-51
2022/12/10 12:55:16;;;;;;;65.18;26.27;;;;;;;2.88;90.93;100064.44;8310495;28;20060;-50
2022/12/10 12:59:39;;;;;;;55.03;22.77;;;;;;;2.71;88.50;100056.69;8310344;28;20041;-54
2022/12/10 13:03:42;;;;;;;61.95;24.55;;;;;;;2.57;91.33;100064.78;8299076;28;20440;-52
2022/12/10 13:07:43;;;;;;;61.50;26.15;;;;;;;2.59;92.44;100062.84;8310776;28;20045;-50
2022/12/10 13:11:46;;;;;;;59.25;23.63;;;;;;;2.59;91.02;100062.84;8306966;28;20518;-50
2022/12/10 13:15:47;;;;;;;67.20;26.35;;;;;;;2.58;92.37;100060.28;8310943;28;20048;-50
2022/12/10 13:19:51;;;;;;;65.22;27.27;;;;;;;2.62;93.69;100062.63;8285965;28;20712;-55
2022/12/10 13:24:03;;;;;;;63.80;26.45;;;;;;;2.67;92.73;100060.53;8283903;28;20038;-54
2022/12/10 13:32:42;;;;;;;73.00;28.33;;;;;;;2.22;93.98;100068.88;8396561;27;20391;-52
2022/12/10 13:45:30;;;;;;;67.13;28.20;;;;;;;1.97;95.66;100074.09;8373638;28;20351;-52
2022/12/10 13:50:07;;;;;;;71.35;28.40;;;;;;;2.05;95.32;100071.81;8376630;28;20064;-52
2022/12/10 13:54:47;;;;;;;68.10;27.05;;;;;;;2.03;95.71;100074.56;8375470;28;20040;-54
2022/12/10 13:59:23;;;;;;;73.32;31.20;;;;;;;2.04;95.62;100080.72;8365832;28;20076;-55
2022/12/10 14:04:03;;;;;;;78.47;29.33;;;;;;;2.14;95.49;100092.53;8364286;28;20044;-52
2022/12/10 14:08:05;;;;;;;62.80;25.95;;;;;;;2.19;95.30;100090.41;8376640;28;20102;-54
2022/12/10 14:12:14;;;;;;;67.05;26.30;;;;;;;2.19;96.22;100090.41;8375345;28;20036;-52
2022/12/10 14:16:15;;;;;;;68.38;26.55;;;;;;;2.21;95.96;100093.84;8370020;28;20049;-53
2022/12/10 14:20:22;;;;;;;69.30;26.55;;;;;;;2.27;96.54;100104.13;8358879;28;20498;-52
2022/12/10 14:28:45;;;;;;;86.68;34.72;;;;;;;2.30;97.47;100109.25;8276645;28;20425;-49
2022/12/10 14:32:47;;;;;;;80.72;31.05;;;;;;;2.33;98.35;100111.72;8249724;28;20081;-52
2022/12/10 14:36:51;;;;;;;80.72;29.92;;;;;;;2.30;97.25;100108.38;8270534;28;20855;-50
2022/12/10 14:40:54;;;;;;;74.50;30.00;;;;;;;2.26;96.30;100118.41;8282312;28;20038;-52
2022/12/10 14:44:58;;;;;;;73.30;30.00;;;;;;;2.21;96.52;100114.31;8274518;28;20488;-53
2022/12/10 14:48:59;;;;;;;75.22;29.65;;;;;;;2.19;96.90;100110.91;8247166;28;20101;-50
2022/12/10 14:53:00;;;;;;;74.97;28.50;;;;;;;2.07;96.52;100106.34;8248412;28;20496;-51
2022/12/10 14:57:05;;;;;;;72.43;28.85;;;;;;;1.96;97.04;100115.03;8253161;28;20516;-52
2022/12/10 15:01:09;;;;;;;77.50;28.48;;;;;;;2.02;98.19;100111.97;8246387;28;20042;-53
2022/12/10 15:05:20;;;;;;;80.97;29.58;;;;;;;2.08;98.50;100124.06;8246674;28;20117;-51
2022/12/10 15:09:25;;;;;;;74.05;29.25;;;;;;;2.12;99.00;100130.88;8249015;28;20512;-54
2022/12/10 15:17:53;;;;;;;84.55;29.17;;;;;;;1.83;100.00;100141.56;8289714;28;20395;-53
2022/12/10 15:22:17;;;;;;;81.18;27.38;;;;;;;1.74;100.00;100138.66;8280647;28;20030;-51
2022/12/10 15:26:24;;;;;;;83.80;29.40;;;;;;;1.71;100.00;100141.50;8279170;28;20502;-53
2022/12/10 15:30:40;;;;;;;80.88;31.27;;;;;;;1.63;100.00;100144.63;8281229;28;20096;-52
2022/12/10 15:34:45;;;;;;;86.28;31.45;;;;;;;1.62;100.00;100148.22;8278265;28;20042;-52
2022/12/10 15:38:46;;;;;;;84.82;28.98;;;;;;;1.56;100.00;100145.09;8256792;28;20189;-52
2022/12/10 15:42:47;;;;;;;96.80;35.70;;;;;;;1.60;100.00;100150.16;8248765;28;20041;-54
2022/12/10 15:46:50;;;;;;;111.05;39.75;;;;;;;1.65;100.00;100136.53;8248445;28;20046;-55
2022/12/10 15:50:51;;;;;;;112.35;39.15;;;;;;;1.62;100.00;100142.06;8249273;28;20035;-55
2022/12/10 15:54:55;;;;;;;86.00;30.27;;;;;;;1.58;100.00;100143.19;8272655;28;20039;-51
2022/12/10 15:58:55;;;;;;;85.82;31.38;;;;;;;1.61;100.00;100145.66;8272904;28;20133;-54
2022/12/10 16:02:58;;;;;;;88.90;29.45;;;;;;;1.64;100.00;100150.78;8272516;28;20089;-52
2022/12/10 16:06:58;;;;;;;85.28;29.60;;;;;;;1.64;100.00;100148.13;8267815;28;20472;-55
2022/12/10 16:11:05;;;;;;;90.43;31.23;;;;;;;1.58;100.00;100135.19;8270142;28;20051;-53
2022/12/10 16:15:14;;;;;;;85.97;30.23;;;;;;;1.57;100.00;100144.13;8276484;28;20049;-51
2022/12/10 16:19:15;;;;;;;73.32;27.30;;;;;;;1.54;100.00;100139.00;8275575;28;20045;-52
2022/12/10 16:23:15;;;;;;;83.07;30.67;;;;;;;1.55;100.00;100140.69;8278995;28;20061;-52
2022/12/10 16:27:16;;;;;;;85.35;30.42;;;;;;;1.50;100.00;100142.81;8265474;28;20331;-52
2022/12/10 16:31:19;;;;;;;91.60;33.50;;;;;;;1.52;100.00;100143.53;8257662;28;20049;-52
2022/12/10 16:35:20;;;;;;;86.40;27.97;;;;;;;1.41;100.00;100148.69;8252348;28;20585;-54
2022/12/10 16:39:21;;;;;;;87.43;31.58;;;;;;;1.53;100.00;100147.94;8252839;28;20400;-53
2022/12/10 16:43:25;;;;;;;75.95;27.17;;;;;;;1.43;100.00;100157.41;8255157;28;20420;-55
2022/12/10 16:47:25;;;;;;;86.47;31.83;;;;;;;1.50;100.00;100148.13;8252663;28;20432;-52
2022/12/10 16:51:28;;;;;;;86.15;31.73;;;;;;;1.59;100.00;100150.25;8254518;28;20042;-53
2022/12/10 16:55:29;;;;;;;76.33;30.40;;;;;;;1.60;100.00;100143.94;8250616;28;20042;-52
2022/12/10 16:59:30;;;;;;;80.55;30.70;;;;;;;1.58;100.00;100148.50;8241623;28;20054;-55
2022/12/10 17:03:31;;;;;;;70.03;27.98;;;;;;;1.43;100.00;100162.75;8267245;28;20038;-52
2022/12/10 17:07:31;;;;;;;78.78;32.42;;;;;;;1.41;100.00;100170.00;8247690;28;20088;-54
2022/12/10 17:11:48;;;;;;;86.95;34.25;;;;;;;1.38;100.00;100175.50;8258674;28;20026;-54
2022/12/10 17:15:50;;;;;;;79.50;28.48;;;;;;;1.42;100.00;100172.56;8258145;28;20081;-53
2022/12/10 17:19:50;;;;;;;83.65;31.33;;;;;;;1.50;100.00;100177.44;8252634;28;20093;-52
2022/12/10 17:23:51;;;;;;;95.40;35.38;;;;;;;1.46;100.00;100178.53;8251989;28;20053;-52
2022/12/10 17:27:51;;;;;;;88.07;30.40;;;;;;;1.50;100.00;100169.44;8251993;28;20039;-56
2022/12/10 17:31:52;;;;;;;82.30;29.88;;;;;;;1.47;100.00;100181.09;8252578;28;20045;-53
2022/12/10 17:35:53;;;;;;;100.25;40.10;;;;;;;1.53;100.00;100174.56;8254113;28;20042;-55
2022/12/10 17:39:54;;;;;;;77.35;28.60;;;;;;;1.44;100.00;100175.97;8246863;28;20227;-54
2022/12/10 17:43:54;;;;;;;79.90;29.38;;;;;;;1.42;100.00;100171.69;8252366;28;20320;-49
2022/12/10 17:47:55;;;;;;;76.15;29.30;;;;;;;1.49;100.00;100173.03;8252494;28;20357;-51
2022/12/10 17:51:58;;;;;;;79.10;30.60;;;;;;;1.47;100.00;100180.28;8255006;28;20144;-50
2022/12/10 17:56:00;;;;;;;78.30;29.45;;;;;;;1.45;100.00;100182.16;8254896;28;20042;-49
2022/12/10 18:00:00;;;;;;;71.70;26.20;;;;;;;1.33;100.00;100172.25;8248801;28;20393;-50
2022/12/10 18:04:01;;;;;;;70.90;25.88;;;;;;;1.38;100.00;100183.47;8256313;28;20042;-53
2022/12/10 18:08:02;;;;;;;73.43;25.27;;;;;;;1.32;100.00;100178.53;8250825;28;20038;-52
2022/12/10 18:12:03;;;;;;;93.70;33.55;;;;;;;1.33;100.00;100183.75;8255457;28;20038;-52
2022/12/10 18:16:09;;;;;;;75.13;26.38;;;;;;;1.28;100.00;100190.31;8254134;28;20046;-50
2022/12/10 18:20:26;;;;;;;102.15;37.92;;;;;;;1.32;100.00;100190.03;8250578;28;20042;-53
2022/12/10 18:24:26;;;;;;;257.50;91.68;;;;;;;1.37;100.00;100193.28;8236095;28;20042;-51
2022/12/10 18:32:39;;;;;;;102.50;38.15;;;;;;;1.48;100.00;100198.81;8398314;27;20481;-52
2022/12/10 18:36:43;;;;;;;73.78;28.75;;;;;;;1.55;100.00;100199.28;8387020;28;20037;-53
2022/12/10 18:40:44;;;;;;;;;;;;;;;1.36;100.00;100198.69;8375138;28;20037;-52
2022/12/10 18:44:44;;;;;;;65.03;24.33;;;;;;;1.29;100.00;100197.34;8376660;28;20024;-51
2022/12/10 18:48:45;;;;;;;70.70;24.73;;;;;;;1.31;100.00;100192.78;8376696;28;20451;-51
2022/12/10 18:52:46;;;;;;;64.72;25.38;;;;;;;1.32;100.00;100197.16;8371691;28;20549;-51
2022/12/10 18:56:47;;;;;;;75.57;27.63;;;;;;;1.30;100.00;100199.03;8373300;28;20040;-50
2022/12/10 19:00:47;;;;;;;66.28;25.42;;;;;;;1.33;100.00;100201.53;8404345;28;20040;-51
2022/12/10 19:04:48;;;;;;;81.47;29.10;;;;;;;1.26;100.00;100203.72;8410205;28;20102;-55
2022/12/10 19:08:50;;;;;;;143.77;55.28;;;;;;;1.29;100.00;100197.34;8389134;28;20444;-55
2022/12/10 19:12:50;;;;;;;111.75;45.80;;;;;;;1.39;100.00;100214.47;8379676;28;20120;-55
2022/12/10 19:16:51;;;;;;;78.60;30.38;;;;;;;1.36;100.00;100214.66;8378386;28;20560;-55
2022/12/10 19:20:51;;;;;;;119.13;47.75;;;;;;;1.39;100.00;100214.47;8383645;28;20029;-54